createdAt,value
2017-05-20T00:00:13.982Z,100391
2017-05-20T00:01:14.039Z,100390
2017-05-20T00:02:14.455Z,100390
2017-05-20T00:03:13.202Z,100388
2017-05-20T00:04:14.178Z,100381
2017-05-20T00:05:14.259Z,100387
2017-05-20T00:06:13.331Z,100390
2017-05-20T00:07:13.383Z,100385
2017-05-20T00:08:14.670Z,100393
2017-05-20T00:09:13.590Z,100394
2017-05-20T00:10:14.621Z,100394
2017-05-20T00:11:14.735Z,100390
2017-05-20T00:12:14.737Z,100395
2017-05-20T00:13:14.039Z,100399
2017-05-20T00:14:14.843Z,100400
2017-05-20T00:15:13.953Z,100398
2017-05-20T00:16:14.989Z,100402
2017-05-20T00:17:14.080Z,100401
2017-05-20T00:18:15.083Z,100404
2017-05-20T00:19:14.508Z,100407
2017-05-20T00:20:14.273Z,100406
2017-05-20T00:21:15.256Z,100403
2017-05-20T00:22:15.311Z,100391
2017-05-20T00:23:15.413Z,100391
2017-05-20T00:24:15.427Z,100390
2017-05-20T00:25:15.592Z,100392
2017-05-20T00:26:15.517Z,100393
2017-05-20T00:27:14.552Z,100391
2017-05-20T00:28:15.540Z,100393
2017-05-20T00:29:14.597Z,100389
2017-05-20T00:30:15.624Z,100391
2017-05-20T00:31:15.814Z,100390
2017-05-20T00:32:14.743Z,100389
2017-05-20T00:33:15.745Z,100390
2017-05-20T00:34:14.819Z,100383
2017-05-20T00:35:14.864Z,100387
2017-05-20T00:36:14.973Z,100395
2017-05-20T00:37:15.256Z,100393
2017-05-20T00:38:16.014Z,100397
2017-05-20T00:39:16.135Z,100395
2017-05-20T00:40:16.099Z,100396
2017-05-20T00:41:15.210Z,100402
2017-05-20T00:42:15.328Z,100400
2017-05-20T00:43:15.592Z,100395
2017-05-20T00:44:16.324Z,100398
2017-05-20T00:45:16.398Z,100397
2017-05-20T00:46:15.532Z,100409
2017-05-20T00:47:16.559Z,100411
2017-05-20T00:48:16.658Z,100403
2017-05-20T00:49:15.898Z,100411
2017-05-20T00:50:15.675Z,100412
2017-05-20T00:51:15.702Z,100413
2017-05-20T00:52:16.773Z,100412
2017-05-20T00:53:15.909Z,100410
2017-05-20T00:54:16.896Z,100409
2017-05-20T00:55:16.156Z,100396
2017-05-20T00:56:16.080Z,100405
2017-05-20T00:57:17.105Z,100405
2017-05-20T00:58:17.135Z,100412
2017-05-20T00:59:16.212Z,100398
2017-05-20T01:00:17.787Z,100407
2017-05-20T01:01:17.432Z,100401
2017-05-20T01:02:17.319Z,100401
2017-05-20T01:03:16.433Z,100405
2017-05-20T01:04:16.491Z,100402
2017-05-20T01:05:16.539Z,100396
2017-05-20T01:06:17.543Z,100400
2017-05-20T01:07:17.812Z,100400
2017-05-20T01:08:17.709Z,100401
2017-05-20T01:09:17.692Z,100392
2017-05-20T01:10:16.834Z,100400
2017-05-20T01:11:16.846Z,100400
2017-05-20T01:12:17.865Z,100395
2017-05-20T01:13:18.224Z,100398
2017-05-20T01:14:17.061Z,100389
2017-05-20T01:15:17.121Z,100398
2017-05-20T01:16:18.145Z,100397
2017-05-20T01:17:18.114Z,100391
2017-05-20T01:18:18.212Z,100396
2017-05-20T01:19:18.398Z,100396
2017-05-20T01:20:17.331Z,100395
2017-05-20T01:21:18.324Z,100385
2017-05-20T01:22:18.388Z,100385
2017-05-20T01:23:18.377Z,100390
2017-05-20T01:24:18.400Z,100391
2017-05-20T01:25:18.701Z,100387
2017-05-20T01:26:17.510Z,100391
2017-05-20T01:27:18.489Z,100388
2017-05-20T01:28:17.533Z,100390
2017-05-20T01:29:18.605Z,100381
2017-05-20T01:30:18.667Z,100388
2017-05-20T01:31:18.875Z,100391
2017-05-20T01:32:17.758Z,100391
2017-05-20T01:33:17.904Z,100397
2017-05-20T01:34:17.917Z,100387
2017-05-20T01:35:17.973Z,100398
2017-05-20T01:36:18.975Z,100402
2017-05-20T01:37:19.280Z,100405
2017-05-20T01:38:18.170Z,100397
2017-05-20T01:39:19.208Z,100405
2017-05-20T01:40:18.325Z,100406
2017-05-20T01:41:18.353Z,100403
2017-05-20T01:42:19.388Z,100415
2017-05-20T01:43:19.593Z,100417
2017-05-20T01:44:19.439Z,100411
2017-05-20T01:45:18.545Z,100417
2017-05-20T01:46:18.619Z,100418
2017-05-20T01:47:18.679Z,100423
2017-05-20T01:48:19.678Z,100415
2017-05-20T01:49:18.933Z,100422
2017-05-20T01:50:18.808Z,100422
2017-05-20T01:51:19.846Z,100423
2017-05-20T01:52:19.924Z,100419
2017-05-20T01:53:19.917Z,100417
2017-05-20T01:54:19.024Z,100424
2017-05-20T01:55:20.306Z,100414
2017-05-20T01:56:20.162Z,100421
2017-05-20T01:57:20.221Z,100425
2017-05-20T01:58:19.373Z,100426
2017-05-20T01:59:20.409Z,100431
2017-05-20T02:00:20.379Z,100419
2017-05-20T02:01:20.707Z,100422
2017-05-20T02:02:20.547Z,100430
2017-05-20T02:03:20.646Z,100429
2017-05-20T02:04:19.733Z,100421
2017-05-20T02:05:19.733Z,100431
2017-05-20T02:06:21.003Z,100426
2017-05-20T02:07:19.940Z,100426
2017-05-20T02:08:20.887Z,100432
2017-05-20T02:09:20.014Z,100434
2017-05-20T02:10:20.954Z,100422
2017-05-20T02:11:20.984Z,100434
2017-05-20T02:12:21.207Z,100436
2017-05-20T02:13:20.117Z,100427
2017-05-20T02:14:21.075Z,100434
2017-05-20T02:15:20.148Z,100434
2017-05-20T02:16:21.189Z,100428
2017-05-20T02:17:21.258Z,100432
2017-05-20T02:18:20.541Z,100436
2017-05-20T02:19:20.485Z,100439
2017-05-20T02:20:21.455Z,100429
2017-05-20T02:21:20.588Z,100438
2017-05-20T02:22:20.601Z,100436
2017-05-20T02:23:21.579Z,100436
2017-05-20T02:24:20.818Z,100428
2017-05-20T02:25:21.568Z,100442
2017-05-20T02:26:20.673Z,100441
2017-05-20T02:27:21.767Z,100441
2017-05-20T02:28:20.817Z,100439
2017-05-20T02:29:21.808Z,100438
2017-05-20T02:30:22.019Z,100440
2017-05-20T02:31:21.974Z,100442
2017-05-20T02:32:22.020Z,100444
2017-05-20T02:33:22.047Z,100445
2017-05-20T02:34:21.187Z,100445
2017-05-20T02:35:22.134Z,100445
2017-05-20T02:36:22.428Z,100446
2017-05-20T02:37:21.266Z,100443
2017-05-20T02:38:22.228Z,100449
2017-05-20T02:39:22.232Z,100453
2017-05-20T02:40:22.323Z,100453
2017-05-20T02:41:22.362Z,100454
2017-05-20T02:42:22.612Z,100453
2017-05-20T02:43:21.486Z,100453
2017-05-20T02:44:22.476Z,100448
2017-05-20T02:45:22.539Z,100449
2017-05-20T02:46:22.631Z,100448
2017-05-20T02:47:22.638Z,100449
2017-05-20T02:48:21.979Z,100453
2017-05-20T02:49:21.833Z,100455
2017-05-20T02:50:22.816Z,100459
2017-05-20T02:51:21.883Z,100460
2017-05-20T02:52:21.984Z,100464
2017-05-20T02:53:22.954Z,100460
2017-05-20T02:54:22.276Z,100460
2017-05-20T02:55:22.092Z,100461
2017-05-20T02:56:22.210Z,100463
2017-05-20T02:57:23.163Z,100461
2017-05-20T02:58:23.208Z,100459
2017-05-20T02:59:22.207Z,100463
2017-05-20T03:00:23.403Z,100453
2017-05-20T03:01:23.342Z,100465
2017-05-20T03:02:23.389Z,100459
2017-05-20T03:03:22.412Z,100459
2017-05-20T03:04:22.510Z,100463
2017-05-20T03:05:22.548Z,100452
2017-05-20T03:06:22.738Z,100458
2017-05-20T03:07:22.694Z,100453
2017-05-20T03:08:23.646Z,100454
2017-05-20T03:09:22.744Z,100443
2017-05-20T03:10:23.786Z,100451
2017-05-20T03:11:24.014Z,100446
2017-05-20T03:12:23.909Z,100446
2017-05-20T03:13:22.984Z,100441
2017-05-20T03:14:24.014Z,100449
2017-05-20T03:15:23.987Z,100445
2017-05-20T03:16:23.107Z,100448
2017-05-20T03:17:23.291Z,100444
2017-05-20T03:18:24.132Z,100448
2017-05-20T03:19:24.177Z,100449
2017-05-20T03:20:23.281Z,100447
2017-05-20T03:21:24.298Z,100448
2017-05-20T03:22:23.372Z,100446
2017-05-20T03:23:23.647Z,100447
2017-05-20T03:24:24.447Z,100442
2017-05-20T03:25:23.530Z,100447
2017-05-20T03:26:23.602Z,100447
2017-05-20T03:27:23.667Z,100451
2017-05-20T03:28:23.649Z,100451
2017-05-20T03:29:23.997Z,100450
2017-05-20T03:30:24.748Z,100452
2017-05-20T03:31:24.855Z,100452
2017-05-20T03:32:23.932Z,100452
2017-05-20T03:33:24.930Z,100458
2017-05-20T03:34:25.005Z,100459
2017-05-20T03:35:25.147Z,100457
2017-05-20T03:36:24.127Z,100463
2017-05-20T03:37:25.153Z,100463
2017-05-20T03:38:24.248Z,100455
2017-05-20T03:39:25.233Z,100465
2017-05-20T03:40:25.258Z,100463
2017-05-20T03:41:24.526Z,100465
2017-05-20T03:42:25.314Z,100459
2017-05-20T03:43:24.410Z,100468
2017-05-20T03:44:25.393Z,100470
2017-05-20T03:45:25.481Z,100471
2017-05-20T03:46:25.568Z,100464
2017-05-20T03:47:24.851Z,100474
2017-05-20T03:48:24.661Z,100477
2017-05-20T03:49:24.662Z,100481
2017-05-20T03:50:25.703Z,100484
2017-05-20T03:51:24.862Z,100486
2017-05-20T03:52:25.828Z,100491
2017-05-20T03:53:25.143Z,100481
2017-05-20T03:54:24.955Z,100492
2017-05-20T03:55:26.022Z,100488
2017-05-20T03:56:26.146Z,100487
2017-05-20T03:57:26.142Z,100491
2017-05-20T03:58:25.150Z,100492
2017-05-20T03:59:26.411Z,100483
2017-05-20T04:00:25.194Z,100490
2017-05-20T04:01:26.235Z,100484
2017-05-20T04:02:26.341Z,100488
2017-05-20T04:03:25.419Z,100491
2017-05-20T04:04:26.390Z,100486
2017-05-20T04:05:25.673Z,100487
2017-05-20T04:06:25.513Z,100490
2017-05-20T04:07:26.492Z,100489
2017-05-20T04:08:25.619Z,100490
2017-05-20T04:09:26.644Z,100491
2017-05-20T04:10:25.694Z,100495
2017-05-20T04:11:26.847Z,100492
2017-05-20T04:12:26.689Z,100495
2017-05-20T04:13:25.758Z,100497
2017-05-20T04:14:26.783Z,100492
2017-05-20T04:15:25.886Z,100494
2017-05-20T04:16:25.936Z,100494
2017-05-20T04:17:27.117Z,100497
2017-05-20T04:18:26.044Z,100488
2017-05-20T04:19:27.090Z,100494
2017-05-20T04:20:26.134Z,100499
2017-05-20T04:21:27.146Z,100494
2017-05-20T04:22:26.175Z,100500
2017-05-20T04:23:26.432Z,100495
2017-05-20T04:24:26.323Z,100502
2017-05-20T04:25:26.375Z,100509
2017-05-20T04:26:27.375Z,100509
2017-05-20T04:27:27.345Z,100503
2017-05-20T04:28:26.416Z,100509
2017-05-20T04:29:27.545Z,100512
2017-05-20T04:30:26.415Z,100509
2017-05-20T04:31:27.408Z,100518
2017-05-20T04:32:27.475Z,100522
2017-05-20T04:33:27.495Z,100518
2017-05-20T04:34:26.486Z,100528
2017-05-20T04:35:26.810Z,100533
2017-05-20T04:36:27.636Z,100526
2017-05-20T04:37:26.670Z,100530
2017-05-20T04:38:27.740Z,100535
2017-05-20T04:39:27.816Z,100536
2017-05-20T04:40:27.824Z,100533
2017-05-20T04:41:27.162Z,100537
2017-05-20T04:42:26.908Z,100542
2017-05-20T04:43:26.961Z,100532
2017-05-20T04:44:27.946Z,100543
2017-05-20T04:45:27.974Z,100545
2017-05-20T04:46:27.033Z,100548
2017-05-20T04:47:28.338Z,100544
2017-05-20T04:48:27.142Z,100549
2017-05-20T04:49:27.218Z,100549
2017-05-20T04:50:27.306Z,100554
2017-05-20T04:51:27.314Z,100555
2017-05-20T04:52:28.290Z,100554
2017-05-20T04:53:28.544Z,100552
2017-05-20T04:54:27.468Z,100555
2017-05-20T04:55:28.479Z,100553
2017-05-20T04:56:28.529Z,100555
2017-05-20T04:57:28.575Z,100555
2017-05-20T04:58:27.649Z,100555
2017-05-20T04:59:27.907Z,100551
2017-05-20T05:00:28.691Z,100553
2017-05-20T05:01:28.762Z,100560
2017-05-20T05:02:28.782Z,100559
2017-05-20T05:03:28.823Z,100559
2017-05-20T05:04:27.933Z,100562
2017-05-20T05:05:29.222Z,100560
2017-05-20T05:06:29.005Z,100564
2017-05-20T05:07:29.077Z,100558
2017-05-20T05:08:28.154Z,100563
2017-05-20T05:09:28.246Z,100565
2017-05-20T05:10:29.235Z,100564
2017-05-20T05:11:29.468Z,100570
2017-05-20T05:12:28.360Z,100560
2017-05-20T05:13:29.344Z,100572
2017-05-20T05:14:29.425Z,100570
2017-05-20T05:15:29.503Z,100571
2017-05-20T05:16:28.606Z,100575
2017-05-20T05:17:29.901Z,100567
2017-05-20T05:18:29.689Z,100574
2017-05-20T05:19:29.718Z,100576
2017-05-20T05:20:28.743Z,100578
2017-05-20T05:21:28.757Z,100576
2017-05-20T05:22:29.843Z,100575
2017-05-20T05:23:30.075Z,100582
2017-05-20T05:24:29.993Z,100588
2017-05-20T05:25:29.075Z,100588
2017-05-20T05:26:29.164Z,100580
2017-05-20T05:27:29.173Z,100587
2017-05-20T05:28:30.205Z,100591
2017-05-20T05:29:29.641Z,100589
2017-05-20T05:30:29.451Z,100595
2017-05-20T05:31:30.459Z,100595
2017-05-20T05:32:29.563Z,100598
2017-05-20T05:33:30.540Z,100598
2017-05-20T05:34:30.506Z,100601
2017-05-20T05:35:30.779Z,100601
2017-05-20T05:36:30.654Z,100599
2017-05-20T05:37:29.775Z,100599
2017-05-20T05:38:29.805Z,100606
2017-05-20T05:39:30.775Z,100606
2017-05-20T05:40:29.877Z,100601
2017-05-20T05:41:31.144Z,100599
2017-05-20T05:42:30.047Z,100599
2017-05-20T05:43:31.018Z,100598
2017-05-20T05:44:30.018Z,100595
2017-05-20T05:45:31.061Z,100597
2017-05-20T05:46:31.162Z,100603
2017-05-20T05:47:30.412Z,100605
2017-05-20T05:48:31.232Z,100609
2017-05-20T05:49:31.271Z,100608
2017-05-20T05:50:31.334Z,100611
2017-05-20T05:51:31.384Z,100616
2017-05-20T05:52:31.439Z,100609
2017-05-20T05:53:30.735Z,100615
2017-05-20T05:54:31.546Z,100615
2017-05-20T05:55:30.698Z,100617
2017-05-20T05:56:30.736Z,100620
2017-05-20T05:57:31.675Z,100613
2017-05-20T05:58:30.730Z,100622
2017-05-20T05:59:31.974Z,100626
2017-05-20T06:00:30.867Z,100627
2017-05-20T06:01:31.906Z,100627
2017-05-20T06:02:30.970Z,100629
2017-05-20T06:03:30.982Z,100628
2017-05-20T06:04:31.115Z,100632
2017-05-20T06:05:32.221Z,100632
2017-05-20T06:06:32.049Z,100629
2017-05-20T06:07:32.176Z,100633
2017-05-20T06:08:31.215Z,100634
2017-05-20T06:09:31.324Z,100635
2017-05-20T06:10:31.341Z,100636
2017-05-20T06:11:32.613Z,100630
2017-05-20T06:12:32.526Z,100638
2017-05-20T06:13:31.646Z,100633
2017-05-20T06:14:31.724Z,100635
2017-05-20T06:15:32.685Z,100635
2017-05-20T06:16:32.671Z,100635
2017-05-20T06:17:32.934Z,100636
2017-05-20T06:18:32.742Z,100628
2017-05-20T06:19:32.801Z,100637
2017-05-20T06:20:31.909Z,100635
2017-05-20T06:21:32.920Z,100635
2017-05-20T06:22:32.884Z,100638
2017-05-20T06:23:32.163Z,100634
2017-05-20T06:24:32.007Z,100625
2017-05-20T06:25:32.041Z,100630
2017-05-20T06:26:32.102Z,100636
2017-05-20T06:27:32.081Z,100636
2017-05-20T06:28:33.117Z,100642
2017-05-20T06:29:32.548Z,100642
2017-05-20T06:30:33.230Z,100646
2017-05-20T06:31:33.303Z,100646
2017-05-20T06:32:32.408Z,100649
2017-05-20T06:33:32.494Z,100648
2017-05-20T06:34:33.546Z,100654
2017-05-20T06:35:33.908Z,100654
2017-05-20T06:36:32.684Z,100661
2017-05-20T06:37:33.705Z,100655
2017-05-20T06:38:32.840Z,100658
2017-05-20T06:39:32.835Z,100658
2017-05-20T06:40:33.857Z,100656
2017-05-20T06:41:34.054Z,100660
2017-05-20T06:42:33.894Z,100662
2017-05-20T06:43:33.927Z,100661
2017-05-20T06:44:34.054Z,100659
2017-05-20T06:45:34.122Z,100663
2017-05-20T06:46:34.088Z,100664
2017-05-20T06:47:34.463Z,100663
2017-05-20T06:48:34.266Z,100659
2017-05-20T06:49:33.303Z,100659
2017-05-20T06:50:33.327Z,100658
2017-05-20T06:51:34.410Z,100662
2017-05-20T06:52:34.433Z,100650
2017-05-20T06:53:34.630Z,100667
2017-05-20T06:54:33.513Z,100662
2017-05-20T06:55:33.566Z,100669
2017-05-20T06:56:33.638Z,100669
2017-05-20T06:57:34.640Z,100670
2017-05-20T06:58:34.712Z,100672
2017-05-20T06:59:34.900Z,100677
2017-05-20T07:00:33.783Z,100675
2017-05-20T07:01:35.491Z,100675
2017-05-20T07:02:34.811Z,100680
2017-05-20T07:03:33.932Z,100683
2017-05-20T07:04:33.988Z,100680
2017-05-20T07:05:34.162Z,100684
2017-05-20T07:06:34.081Z,100685
2017-05-20T07:07:34.102Z,100689
2017-05-20T07:08:34.197Z,100685
2017-05-20T07:09:35.214Z,100678
2017-05-20T07:10:34.196Z,100678
2017-05-20T07:11:35.398Z,100685
2017-05-20T07:12:34.307Z,100688
2017-05-20T07:13:35.296Z,100687
2017-05-20T07:14:34.372Z,100690
2017-05-20T07:15:35.393Z,100689
2017-05-20T07:16:35.443Z,100693
2017-05-20T07:17:34.675Z,100696
2017-05-20T07:18:34.664Z,100689
2017-05-20T07:19:35.646Z,100696
2017-05-20T07:20:34.804Z,100700
2017-05-20T07:21:35.769Z,100700
2017-05-20T07:22:35.023Z,100705
2017-05-20T07:23:35.900Z,100698
2017-05-20T07:24:34.988Z,100706
2017-05-20T07:25:35.057Z,100704
2017-05-20T07:26:35.031Z,100703
2017-05-20T07:27:36.059Z,100697
2017-05-20T07:28:36.253Z,100713
2017-05-20T07:29:35.145Z,100710
2017-05-20T07:30:35.147Z,100712
2017-05-20T07:31:35.225Z,100718
2017-05-20T07:32:36.306Z,100712
2017-05-20T07:33:36.311Z,100715
2017-05-20T07:34:36.502Z,100715
2017-05-20T07:35:35.419Z,100714
2017-05-20T07:36:35.457Z,100714
2017-05-20T07:37:36.494Z,100722
2017-05-20T07:38:35.487Z,100711
2017-05-20T07:39:35.622Z,100710
2017-05-20T07:40:35.884Z,100717
2017-05-20T07:41:35.701Z,100716
2017-05-20T07:42:37.466Z,100722
2017-05-20T07:43:36.856Z,100710
2017-05-20T07:44:36.878Z,100717
2017-05-20T07:45:36.927Z,100720
2017-05-20T07:46:36.131Z,100715
2017-05-20T07:47:37.008Z,100722
2017-05-20T07:48:37.081Z,100720
2017-05-20T07:49:36.126Z,100720
2017-05-20T07:50:37.159Z,100721
2017-05-20T07:51:36.294Z,100720
2017-05-20T07:52:36.443Z,100726
2017-05-20T07:53:36.314Z,100720
2017-05-20T07:54:37.292Z,100728
2017-05-20T07:55:37.380Z,100735
2017-05-20T07:56:36.533Z,100734
2017-05-20T07:57:37.554Z,100735
2017-05-20T07:58:37.871Z,100732
2017-05-20T07:59:37.651Z,100728
2017-05-20T08:00:37.682Z,100731
2017-05-20T08:01:37.741Z,100727
2017-05-20T08:02:37.264Z,100730
2017-05-20T08:03:36.759Z,100730
2017-05-20T08:04:37.064Z,100731
2017-05-20T08:05:37.900Z,100730
2017-05-20T08:06:37.935Z,100731
2017-05-20T08:07:37.959Z,100728
2017-05-20T08:08:37.072Z,100727
2017-05-20T08:09:37.150Z,100731
2017-05-20T08:10:38.348Z,100721
2017-05-20T08:11:37.220Z,100724
2017-05-20T08:12:37.307Z,100728
2017-05-20T08:13:37.442Z,100725
2017-05-20T08:14:37.505Z,100722
2017-05-20T08:15:37.569Z,100717
2017-05-20T08:16:37.844Z,100720
2017-05-20T08:17:38.733Z,100720
2017-05-20T08:18:37.837Z,100722
2017-05-20T08:19:38.915Z,100718
2017-05-20T08:20:37.916Z,100724
2017-05-20T08:21:38.028Z,100725
2017-05-20T08:22:39.409Z,100718
2017-05-20T08:23:39.193Z,100724
2017-05-20T08:24:38.893Z,100725
2017-05-20T08:25:38.803Z,100731
2017-05-20T08:26:39.320Z,100719
2017-05-20T08:27:39.405Z,100729
2017-05-20T08:28:38.614Z,100732
2017-05-20T08:29:39.503Z,100740
2017-05-20T08:30:39.510Z,100742
2017-05-20T08:31:38.625Z,100739
2017-05-20T08:32:38.755Z,100744
2017-05-20T08:33:38.766Z,100741
2017-05-20T08:34:39.914Z,100740
2017-05-20T08:35:39.846Z,100744
2017-05-20T08:36:39.835Z,100747
2017-05-20T08:37:39.914Z,100746
2017-05-20T08:38:40.009Z,100749
2017-05-20T08:39:40.003Z,100737
2017-05-20T08:40:40.248Z,100747
2017-05-20T08:41:40.678Z,100738
2017-05-20T08:42:40.177Z,100740
2017-05-20T08:43:40.133Z,100745
2017-05-20T08:44:39.230Z,100746
2017-05-20T08:45:40.246Z,100744
2017-05-20T08:46:40.465Z,100752
2017-05-20T08:47:39.307Z,100750
2017-05-20T08:48:40.299Z,100751
2017-05-20T08:49:40.340Z,100760
2017-05-20T08:50:39.351Z,100764
2017-05-20T08:51:39.402Z,100763
2017-05-20T08:52:39.775Z,100762
2017-05-20T08:53:40.484Z,100769
2017-05-20T08:54:40.481Z,100768
2017-05-20T08:55:39.567Z,100767
2017-05-20T08:56:40.560Z,100771
2017-05-20T08:57:39.684Z,100774
2017-05-20T08:58:39.951Z,100769
2017-05-20T08:59:40.724Z,100767
2017-05-20T09:00:39.769Z,100772
2017-05-20T09:01:40.758Z,100771
2017-05-20T09:02:40.797Z,100768
2017-05-20T09:03:39.831Z,100771
2017-05-20T09:04:40.096Z,100776
2017-05-20T09:05:40.905Z,100776
2017-05-20T09:06:41.031Z,100782
2017-05-20T09:07:41.135Z,100773
2017-05-20T09:08:41.169Z,100776
2017-05-20T09:09:40.261Z,100784
2017-05-20T09:10:40.408Z,100778
2017-05-20T09:11:40.267Z,100787
2017-05-20T09:12:40.323Z,100787
2017-05-20T09:13:41.997Z,100794
2017-05-20T09:14:41.385Z,100791
2017-05-20T09:15:41.486Z,100793
2017-05-20T09:16:40.677Z,100796
2017-05-20T09:17:41.516Z,100791
2017-05-20T09:18:41.543Z,100790
2017-05-20T09:19:41.600Z,100794
2017-05-20T09:20:41.604Z,100787
2017-05-20T09:21:41.666Z,100802
2017-05-20T09:22:41.064Z,100801
2017-05-20T09:23:41.815Z,100799
2017-05-20T09:24:41.796Z,100797
2017-05-20T09:25:41.881Z,100807
2017-05-20T09:26:41.016Z,100804
2017-05-20T09:27:42.077Z,100807
2017-05-20T09:28:42.284Z,100801
2017-05-20T09:29:42.209Z,100806
2017-05-20T09:30:41.256Z,100810
2017-05-20T09:31:41.331Z,100805
2017-05-20T09:32:41.426Z,100803
2017-05-20T09:33:42.425Z,100799
2017-05-20T09:34:41.685Z,100808
2017-05-20T09:35:41.540Z,100804
2017-05-20T09:36:42.583Z,100802
2017-05-20T09:37:42.665Z,100806
2017-05-20T09:38:41.729Z,100797
2017-05-20T09:39:42.948Z,100803
2017-05-20T09:40:41.793Z,100810
2017-05-20T09:41:42.799Z,100807
2017-05-20T09:42:42.844Z,100809
2017-05-20T09:43:41.934Z,100809
2017-05-20T09:44:42.909Z,100800
2017-05-20T09:45:42.097Z,100802
2017-05-20T09:46:42.945Z,100812
2017-05-20T09:47:42.084Z,100815
2017-05-20T09:48:42.188Z,100820
2017-05-20T09:49:42.277Z,100818
2017-05-20T09:50:42.299Z,100826
2017-05-20T09:51:43.522Z,100823
2017-05-20T09:52:43.371Z,100823
2017-05-20T09:53:43.431Z,100821
2017-05-20T09:54:42.511Z,100826
2017-05-20T09:55:43.545Z,100822
2017-05-20T09:56:42.657Z,100817
2017-05-20T09:57:43.105Z,100827
2017-05-20T09:58:43.761Z,100826
2017-05-20T09:59:42.878Z,100819
2017-05-20T10:00:44.429Z,100828
2017-05-20T10:01:44.006Z,100831
2017-05-20T10:02:43.056Z,100823
2017-05-20T10:03:43.307Z,100822
2017-05-20T10:04:43.159Z,100836
2017-05-20T10:05:44.172Z,100834
2017-05-20T10:06:43.320Z,100829
2017-05-20T10:07:44.329Z,100837
2017-05-20T10:08:44.345Z,100836
2017-05-20T10:09:43.760Z,100835
2017-05-20T10:10:43.517Z,100838
2017-05-20T10:11:43.544Z,100834
2017-05-20T10:12:44.501Z,100836
2017-05-20T10:13:43.714Z,100832
2017-05-20T10:14:45.459Z,100833
2017-05-20T10:15:44.994Z,100836
2017-05-20T10:16:44.827Z,100836
2017-05-20T10:17:45.810Z,100841
2017-05-20T10:18:44.874Z,100835
2017-05-20T10:19:43.977Z,100833
2017-05-20T10:20:43.932Z,100829
2017-05-20T10:21:45.132Z,100833
2017-05-20T10:22:44.024Z,100825
2017-05-20T10:23:45.051Z,100818
2017-05-20T10:24:45.046Z,100828
2017-05-20T10:25:45.079Z,100827
2017-05-20T10:26:45.068Z,100820
2017-05-20T10:27:44.322Z,100833
2017-05-20T10:28:45.153Z,100831
2017-05-20T10:29:45.213Z,100831
2017-05-20T10:30:44.301Z,100835
2017-05-20T10:31:45.372Z,100836
2017-05-20T10:32:44.407Z,100834
2017-05-20T10:33:45.605Z,100834
2017-05-20T10:34:45.526Z,100838
2017-05-20T10:35:45.612Z,100841
2017-05-20T10:36:44.775Z,100842
2017-05-20T10:37:45.785Z,100845
2017-05-20T10:38:44.980Z,100846
2017-05-20T10:39:44.889Z,100837
2017-05-20T10:40:44.986Z,100844
2017-05-20T10:41:44.982Z,100839
2017-05-20T10:42:46.020Z,100836
2017-05-20T10:43:46.023Z,100843
2017-05-20T10:44:46.196Z,100842
2017-05-20T10:45:46.131Z,100841
2017-05-20T10:46:46.170Z,100835
2017-05-20T10:47:45.169Z,100849
2017-05-20T10:48:45.180Z,100853
2017-05-20T10:49:45.191Z,100848
2017-05-20T10:50:46.329Z,100842
2017-05-20T10:51:45.251Z,100846
2017-05-20T10:52:45.375Z,100851
2017-05-20T10:53:46.416Z,100848
2017-05-20T10:54:46.440Z,100862
2017-05-20T10:55:45.500Z,100858
2017-05-20T10:56:45.774Z,100851
2017-05-20T10:57:45.499Z,100858
2017-05-20T10:58:45.569Z,100865
2017-05-20T10:59:45.569Z,100855
2017-05-20T11:00:46.607Z,100863
2017-05-20T11:01:45.745Z,100863
2017-05-20T11:02:46.093Z,100867
2017-05-20T11:03:46.901Z,100865
2017-05-20T11:04:45.995Z,100867
2017-05-20T11:05:46.044Z,100869
2017-05-20T11:06:46.062Z,100875
2017-05-20T11:07:47.113Z,100875
2017-05-20T11:08:46.472Z,100872
2017-05-20T11:09:47.329Z,100878
2017-05-20T11:10:46.349Z,100871
2017-05-20T11:11:46.365Z,100865
2017-05-20T11:12:47.396Z,100872
2017-05-20T11:13:48.137Z,100873
2017-05-20T11:14:47.732Z,100861
2017-05-20T11:15:46.630Z,100868
2017-05-20T11:16:47.687Z,100870
2017-05-20T11:17:46.755Z,100860
2017-05-20T11:18:46.807Z,100868
2017-05-20T11:19:48.698Z,100867
2017-05-20T11:20:47.831Z,100864
2017-05-20T11:21:47.895Z,100867
2017-05-20T11:22:46.959Z,100863
2017-05-20T11:23:47.032Z,100860
2017-05-20T11:24:48.022Z,100874
2017-05-20T11:25:47.326Z,100871
2017-05-20T11:26:47.146Z,100869
2017-05-20T11:27:48.226Z,100867
2017-05-20T11:28:47.297Z,100875
2017-05-20T11:29:48.336Z,100868
2017-05-20T11:30:48.344Z,100868
2017-05-20T11:31:48.676Z,100869
2017-05-20T11:32:47.496Z,100867
2017-05-20T11:33:48.484Z,100871
2017-05-20T11:34:48.534Z,100868
2017-05-20T11:35:47.541Z,100869
2017-05-20T11:36:47.641Z,100866
2017-05-20T11:37:47.842Z,100869
2017-05-20T11:38:47.749Z,100867
2017-05-20T11:39:48.753Z,100868
2017-05-20T11:40:48.815Z,100861
2017-05-20T11:41:47.872Z,100872
2017-05-20T11:42:48.928Z,100875
2017-05-20T11:43:49.242Z,100873
2017-05-20T11:44:48.923Z,100880
2017-05-20T11:45:48.943Z,100881
2017-05-20T11:46:48.974Z,100872
2017-05-20T11:47:48.146Z,100877
2017-05-20T11:48:49.844Z,100883
2017-05-20T11:49:48.388Z,100879
2017-05-20T11:50:49.099Z,100886
2017-05-20T11:51:48.383Z,100884
2017-05-20T11:52:49.347Z,100883
2017-05-20T11:53:48.443Z,100875
2017-05-20T11:54:48.465Z,100887
2017-05-20T11:55:48.821Z,100890
2017-05-20T11:56:48.609Z,100892
2017-05-20T11:57:48.679Z,100891
2017-05-20T11:58:48.701Z,100887
2017-05-20T11:59:49.733Z,100888
2017-05-20T12:00:48.997Z,100890
2017-05-20T12:01:49.809Z,100896
2017-05-20T12:02:48.952Z,100897
2017-05-20T12:03:49.066Z,100897
2017-05-20T12:04:49.620Z,100898
2017-05-20T12:05:49.073Z,100892
2017-05-20T12:06:50.337Z,100904
2017-05-20T12:07:49.205Z,100902
2017-05-20T12:08:49.859Z,100905
2017-05-20T12:09:50.859Z,100898
2017-05-20T12:10:50.293Z,100907
2017-05-20T12:11:50.363Z,100909
2017-05-20T12:12:49.627Z,100907
2017-05-20T12:13:49.450Z,100909
2017-05-20T12:14:49.472Z,100908
2017-05-20T12:15:49.471Z,100906
2017-05-20T12:16:50.500Z,100903
2017-05-20T12:17:49.597Z,100908
2017-05-20T12:18:50.799Z,100909
2017-05-20T12:19:49.708Z,100915
2017-05-20T12:20:50.635Z,100916
2017-05-20T12:21:49.696Z,100922
2017-05-20T12:22:49.764Z,100915
2017-05-20T12:23:50.743Z,100922
2017-05-20T12:24:50.911Z,100919
2017-05-20T12:25:49.867Z,100908
2017-05-20T12:26:50.852Z,100916
2017-05-20T12:27:50.923Z,100920
2017-05-20T12:28:50.945Z,100918